Time;durP1;ratioP1;P1;durP2;ratioP2;P2;SDS_P1;SDS_P2;PMS_P1;PMS_P2;Temp;Humidity;BMP_temperature;BMP_pressure;BME280_temperature;BME280_humidity;BME280_pressure;Samples;Min_cycle;Max_cycle;Signal;HPM_P1;HPM_P2
2023/04/16 00:01:43;;;;;;;;;8.75;7.00;;;;;;;;5069446;28;11564;-87
2023/04/16 00:04:10;;;;;;;;;17.50;17.50;;;;;;;;5070504;28;11425;-85
2023/04/16 00:06:37;;;;;;;;;11.00;11.00;;;;;;;;5071069;28;11613;-85
2023/04/16 00:09:05;;;;;;;;;13.00;12.00;;;;;;;;5070019;28;11599;-85
2023/04/16 00:11:32;;;;;;;;;15.00;13.25;;;;;;;;5068986;28;11469;-87
2023/04/16 00:13:59;;;;;;;;;9.25;9.25;;;;;;;;5069972;28;11613;-85
2023/04/16 00:16:28;;;;;;;;;13.00;12.25;;;;;;;;5069505;28;11498;-87
2023/04/16 00:18:55;;;;;;;;;17.00;13.00;;;;;;;;5073945;28;11469;-85
2023/04/16 00:21:23;;;;;;;;;15.00;11.75;;;;;;;;5075038;28;11612;-87
2023/04/16 00:23:50;;;;;;;;;15.50;12.00;;;;;;;;5072406;28;11600;-87
2023/04/16 00:26:17;;;;;;;;;13.25;11.50;;;;;;;;5069488;28;11517;-84
2023/04/16 00:28:44;;;;;;;;;10.75;10.75;;;;;;;;5077235;28;11457;-88
2023/04/16 00:31:12;;;;;;;;;12.00;12.00;;;;;;;;5073218;28;11405;-85
2023/04/16 00:33:40;;;;;;;;;12.25;12.25;;;;;;;;5077573;28;11498;-84
2023/04/16 00:36:08;;;;;;;;;13.50;13.50;;;;;;;;5073491;28;11481;-87
2023/04/16 00:38:35;;;;;;;;;17.75;15.00;;;;;;;;5069407;28;11480;-87
2023/04/16 00:41:02;;;;;;;;;11.00;10.25;;;;;;;;5067748;28;11562;-89
2023/04/16 00:43:30;;;;;;;;;15.50;15.50;;;;;;;;5068686;28;11603;-88
2023/04/16 00:45:58;;;;;;;;;17.00;14.25;;;;;;;;5075443;28;11471;-85
2023/04/16 00:48:26;;;;;;;;;17.25;15.50;;;;;;;;5079699;28;11674;-84
2023/04/16 00:50:57;;;;;;;;;14.00;13.00;;;;;;;;5072128;28;11506;-87
2023/04/16 00:53:25;;;;;;;;;14.00;14.00;;;;;;;;5088350;28;11517;-86
2023/04/16 00:55:52;;;;;;;;;17.50;15.75;;;;;;;;5078645;28;11631;-89
2023/04/16 00:58:20;;;;;;;;;18.75;15.50;;;;;;;;5071063;28;11473;-95
2023/04/16 01:00:47;;;;;;;;;21.25;19.25;;;;;;;;5080011;28;11499;-95
2023/04/16 01:03:14;;;;;;;;;19.25;16.50;;;;;;;;5074618;28;11662;-91
2023/04/16 01:05:42;;;;;;;;;19.00;15.75;;;;;;;;5070957;28;11583;-90
2023/04/16 01:08:16;;;;;;;;;17.75;15.00;;;;;;;;5071828;28;11601;-90
2023/04/16 01:10:43;;;;;;;;;13.25;13.25;;;;;;;;5075140;28;11564;-86
2023/04/16 01:13:10;;;;;;;;;20.00;20.00;;;;;;;;5071669;28;11569;-83
2023/04/16 01:15:38;;;;;;;;;18.75;15.50;;;;;;;;5070985;28;11586;-84
2023/04/16 01:18:14;;;;;;;;;12.75;12.75;;;;;;;;5072310;28;11540;-88
2023/04/16 01:20:43;;;;;;;;;19.00;18.25;;;;;;;;5071593;28;11540;-83
2023/04/16 01:23:11;;;;;;;;;20.00;19.50;;;;;;;;5070487;28;11607;-81
2023/04/16 01:25:38;;;;;;;;;26.00;24.75;;;;;;;;5072669;28;11558;-88
2023/04/16 01:28:06;;;;;;;;;14.75;13.50;;;;;;;;5072797;28;11592;-88
2023/04/16 01:30:33;;;;;;;;;20.25;17.50;;;;;;;;5077144;28;11582;-85
2023/04/16 01:33:00;;;;;;;;;14.25;12.00;;;;;;;;5078131;28;12436;-84
2023/04/16 01:35:28;;;;;;;;;24.25;23.75;;;;;;;;5082556;28;11687;-84
2023/04/16 01:37:56;;;;;;;;;17.00;17.00;;;;;;;;5077557;28;11552;-84
2023/04/16 01:40:25;;;;;;;;;16.25;16.25;;;;;;;;5077077;28;11576;-83
2023/04/16 01:42:52;;;;;;;;;15.00;15.00;;;;;;;;5072708;28;11593;-81
2023/04/16 01:45:19;;;;;;;;;15.50;15.50;;;;;;;;5080683;28;11857;-82
2023/04/16 01:47:48;;;;;;;;;17.00;17.00;;;;;;;;5073628;28;11568;-85
2023/04/16 01:50:15;;;;;;;;;17.25;15.25;;;;;;;;5073842;28;11606;-86
2023/04/16 01:52:43;;;;;;;;;18.00;18.00;;;;;;;;5085648;28;11665;-85
2023/04/16 01:55:12;;;;;;;;;20.00;15.25;;;;;;;;5080315;28;11535;-83
2023/04/16 01:57:41;;;;;;;;;17.00;17.00;;;;;;;;5077748;28;11589;-83
2023/04/16 02:00:09;;;;;;;;;23.25;16.50;;;;;;;;5082188;28;11553;-88
2023/04/16 02:02:36;;;;;;;;;29.25;21.00;;;;;;;;5085061;28;11610;-89
2023/04/16 02:05:04;;;;;;;;;26.50;22.50;;;;;;;;5081321;28;11557;-85
2023/04/16 02:07:31;;;;;;;;;20.50;18.00;;;;;;;;5089494;28;11565;-85
2023/04/16 02:09:58;;;;;;;;;31.50;29.50;;;;;;;;5091214;28;11563;-87
2023/04/16 02:12:27;;;;;;;;;25.25;20.75;;;;;;;;5077164;28;11563;-88
2023/04/16 02:14:55;;;;;;;;;29.75;24.75;;;;;;;;5081173;28;11570;-84
2023/04/16 02:17:22;;;;;;;;;26.75;20.50;;;;;;;;5091448;28;11572;-83
2023/04/16 02:19:49;;;;;;;;;32.75;27.50;;;;;;;;5083761;28;11548;-89
2023/04/16 02:22:16;;;;;;;;;26.50;23.75;;;;;;;;5071840;28;11567;-87
2023/04/16 02:24:44;;;;;;;;;28.00;23.00;;;;;;;;5071648;28;11606;-86
2023/04/16 02:27:13;;;;;;;;;28.75;23.75;;;;;;;;5075831;28;11539;-86
2023/04/16 02:29:42;;;;;;;;;33.50;28.50;;;;;;;;5090566;28;11572;-86
2023/04/16 02:32:09;;;;;;;;;20.75;20.00;;;;;;;;5088155;28;11652;-89
2023/04/16 02:34:38;;;;;;;;;32.00;30.25;;;;;;;;5077468;28;11563;-84
2023/04/16 02:37:06;;;;;;;;;27.25;26.25;;;;;;;;5076098;28;11696;-85
2023/04/16 02:39:33;;;;;;;;;28.50;24.75;;;;;;;;5077220;28;11560;-87
2023/04/16 02:42:01;;;;;;;;;30.50;26.50;;;;;;;;5083049;28;11686;-92
2023/04/16 02:44:28;;;;;;;;;23.50;23.00;;;;;;;;5073130;28;11571;-82
2023/04/16 02:46:57;;;;;;;;;25.50;21.00;;;;;;;;5073864;28;11573;-84
2023/04/16 02:49:24;;;;;;;;;24.00;19.25;;;;;;;;5074744;28;11559;-84
2023/04/16 02:51:51;;;;;;;;;22.75;21.25;;;;;;;;5091441;28;11695;-91
2023/04/16 02:54:19;;;;;;;;;29.25;23.75;;;;;;;;5080265;28;11688;-93
2023/04/16 02:56:46;;;;;;;;;25.50;22.75;;;;;;;;5082688;28;11572;-91
2023/04/16 02:59:13;;;;;;;;;33.25;24.75;;;;;;;;5092688;28;11686;-83
2023/04/16 03:01:40;;;;;;;;;37.50;36.00;;;;;;;;5091613;28;11506;-89
2023/04/16 03:04:09;;;;;;;;;35.75;33.00;;;;;;;;5079475;28;11589;-83
2023/04/16 03:06:36;;;;;;;;;30.75;29.00;;;;;;;;5080401;28;11590;-86
2023/04/16 03:09:04;;;;;;;;;35.25;32.50;;;;;;;;5076423;28;11562;-90
2023/04/16 03:11:31;;;;;;;;;29.50;27.50;;;;;;;;5072663;28;11657;-89
2023/04/16 03:13:58;;;;;;;;;31.00;30.00;;;;;;;;5071622;28;11687;-90
2023/04/16 03:16:25;;;;;;;;;32.00;30.00;;;;;;;;5075691;28;11594;-87
2023/04/16 03:18:53;;;;;;;;;30.75;30.75;;;;;;;;5075154;28;11581;-90
2023/04/16 03:21:21;;;;;;;;;28.75;27.75;;;;;;;;5072794;28;11627;-89
2023/04/16 03:23:49;;;;;;;;;31.00;28.00;;;;;;;;5070257;28;11596;-86
2023/04/16 03:26:16;;;;;;;;;27.25;24.50;;;;;;;;5072160;28;11601;-84
2023/04/16 03:28:43;;;;;;;;;30.50;24.25;;;;;;;;5073499;28;11562;-87
2023/04/16 03:31:10;;;;;;;;;28.75;28.25;;;;;;;;5070022;28;11504;-88
2023/04/16 03:33:38;;;;;;;;;30.50;30.00;;;;;;;;5072623;28;11555;-85
2023/04/16 03:36:05;;;;;;;;;24.25;24.25;;;;;;;;5070178;28;11574;-85
2023/04/16 03:38:34;;;;;;;;;31.75;26.50;;;;;;;;5071283;28;11606;-83
2023/04/16 03:41:01;;;;;;;;;33.00;28.50;;;;;;;;5069768;28;11693;-86
2023/04/16 03:43:28;;;;;;;;;27.25;25.75;;;;;;;;5071737;28;11566;-85
2023/04/16 03:45:56;;;;;;;;;37.75;32.50;;;;;;;;5074843;28;11679;-85
2023/04/16 03:48:23;;;;;;;;;35.50;30.25;;;;;;;;5073716;28;11600;-86
2023/04/16 03:50:50;;;;;;;;;33.00;30.75;;;;;;;;5081364;28;11710;-87
2023/04/16 03:53:17;;;;;;;;;34.25;33.25;;;;;;;;5068607;28;11590;-84
2023/04/16 03:55:55;;;;;;;;;47.00;38.50;;;;;;;;5081192;28;11594;-88
2023/04/16 03:58:22;;;;;;;;;24.00;24.00;;;;;;;;5079903;28;11562;-87
2023/04/16 04:00:51;;;;;;;;;33.75;30.50;;;;;;;;5082145;28;11481;-88
2023/04/16 04:03:18;;;;;;;;;28.50;28.50;;;;;;;;5087892;28;11630;-85
2023/04/16 04:05:45;;;;;;;;;35.00;33.75;;;;;;;;5084279;28;11575;-90
2023/04/16 04:08:12;;;;;;;;;40.50;34.25;;;;;;;;5077578;28;11694;-88
2023/04/16 04:10:40;;;;;;;;;28.50;26.50;;;;;;;;5074916;28;11547;-86
2023/04/16 04:13:08;;;;;;;;;32.75;31.50;;;;;;;;5081724;28;11574;-83
2023/04/16 04:15:36;;;;;;;;;28.75;22.75;;;;;;;;5085720;28;11598;-89
2023/04/16 04:18:03;;;;;;;;;25.25;24.00;;;;;;;;5077978;28;11570;-88
2023/04/16 04:20:30;;;;;;;;;31.25;29.75;;;;;;;;5069637;28;11716;-85
2023/04/16 04:22:57;;;;;;;;;25.00;24.00;;;;;;;;5073212;28;11763;-90
2023/04/16 04:25:25;;;;;;;;;19.25;19.25;;;;;;;;5071475;28;11601;-90
2023/04/16 04:27:52;;;;;;;;;28.00;28.00;;;;;;;;5070419;28;11624;-91
2023/04/16 04:30:21;;;;;;;;;33.00;29.75;;;;;;;;5076025;28;11578;-84
2023/04/16 04:32:48;;;;;;;;;21.50;20.25;;;;;;;;5073905;28;11674;-89
2023/04/16 04:35:16;;;;;;;;;25.75;22.00;;;;;;;;5077041;28;11704;-90
2023/04/16 04:37:43;;;;;;;;;37.75;35.25;;;;;;;;5073040;28;11648;-87
2023/04/16 04:40:11;;;;;;;;;33.25;29.00;;;;;;;;5072917;28;11620;-86
2023/04/16 04:42:38;;;;;;;;;30.50;28.25;;;;;;;;5071952;28;12496;-90
2023/04/16 04:45:07;;;;;;;;;27.25;27.25;;;;;;;;5079512;28;11680;-86
2023/04/16 04:47:36;;;;;;;;;23.50;22.50;;;;;;;;5072128;28;11961;-91
2023/04/16 04:50:03;;;;;;;;;21.00;20.75;;;;;;;;5082785;28;11545;-90
2023/04/16 04:52:30;;;;;;;;;30.50;26.50;;;;;;;;5089232;28;11552;-89
2023/04/16 04:54:58;;;;;;;;;32.00;29.00;;;;;;;;5075595;28;11714;-92
2023/04/16 04:57:25;;;;;;;;;31.50;28.00;;;;;;;;5070475;28;11601;-84
2023/04/16 04:59:52;;;;;;;;;38.50;30.50;;;;;;;;5068164;28;11690;-86
2023/04/16 05:02:20;;;;;;;;;39.25;31.25;;;;;;;;5067719;28;11553;-90
2023/04/16 05:04:48;;;;;;;;;40.25;37.00;;;;;;;;5082205;28;11563;-88
2023/04/16 05:07:16;;;;;;;;;35.50;32.00;;;;;;;;5081378;28;11558;-82
2023/04/16 05:09:43;;;;;;;;;37.50;31.00;;;;;;;;5068100;28;11648;-83
2023/04/16 05:12:10;;;;;;;;;40.50;35.75;;;;;;;;5073363;28;11559;-83
2023/04/16 05:14:38;;;;;;;;;36.50;35.25;;;;;;;;5081916;28;11607;-82
2023/04/16 05:17:06;;;;;;;;;56.50;42.50;;;;;;;;5070163;28;11737;-86
2023/04/16 05:19:34;;;;;;;;;46.00;37.00;;;;;;;;5076619;28;11627;-87
2023/04/16 05:22:02;;;;;;;;;42.75;35.25;;;;;;;;5083670;28;12239;-84
2023/04/16 05:24:30;;;;;;;;;39.50;36.00;;;;;;;;5076478;28;11579;-88
2023/04/16 05:26:57;;;;;;;;;41.50;39.25;;;;;;;;5081371;28;11705;-84
2023/04/16 05:29:25;;;;;;;;;41.75;36.00;;;;;;;;5075776;28;11619;-84
2023/04/16 05:31:52;;;;;;;;;45.25;39.25;;;;;;;;5067207;28;11615;-85
2023/04/16 05:34:20;;;;;;;;;41.50;36.25;;;;;;;;5077798;28;11921;-85
2023/04/16 05:36:47;;;;;;;;;47.25;41.25;;;;;;;;5068077;28;11581;-83
2023/04/16 05:39:17;;;;;;;;;46.50;39.50;;;;;;;;5070831;28;11561;-84
2023/04/16 05:41:47;;;;;;;;;44.25;38.50;;;;;;;;5077362;28;11583;-82
2023/04/16 05:44:15;;;;;;;;;49.50;40.50;;;;;;;;5078090;28;11577;-84
2023/04/16 05:46:42;;;;;;;;;44.00;37.75;;;;;;;;5076078;28;11559;-82
2023/04/16 05:49:11;;;;;;;;;45.00;40.75;;;;;;;;5068661;28;11601;-84
2023/04/16 05:51:39;;;;;;;;;48.50;38.25;;;;;;;;5084998;28;11679;-90
2023/04/16 05:54:06;;;;;;;;;37.25;32.50;;;;;;;;5086032;28;11662;-86
2023/04/16 05:56:35;;;;;;;;;50.25;39.50;;;;;;;;5067530;28;11574;-88
2023/04/16 05:59:02;;;;;;;;;51.75;44.25;;;;;;;;5079710;28;11673;-88
2023/04/16 06:01:29;;;;;;;;;41.75;37.25;;;;;;;;5086373;28;11632;-86
2023/04/16 06:03:56;;;;;;;;;35.25;34.00;;;;;;;;5084825;28;11566;-89
2023/04/16 06:06:26;;;;;;;;;34.50;30.75;;;;;;;;5063565;28;11589;-85
2023/04/16 06:08:53;;;;;;;;;43.00;34.50;;;;;;;;5083315;28;11559;-85
2023/04/16 06:11:20;;;;;;;;;31.50;30.25;;;;;;;;5077415;28;11702;-84
2023/04/16 06:13:49;;;;;;;;;31.75;29.00;;;;;;;;5089131;28;11620;-90
2023/04/16 06:16:16;;;;;;;;;30.00;28.00;;;;;;;;5091937;28;11634;-89
2023/04/16 06:18:44;;;;;;;;;28.50;28.50;;;;;;;;5074576;28;11567;-84
2023/04/16 06:21:11;;;;;;;;;36.00;28.75;;;;;;;;5081161;28;11700;-87
2023/04/16 06:23:38;;;;;;;;;34.25;31.25;;;;;;;;5088832;28;11577;-89
2023/04/16 06:26:06;;;;;;;;;36.50;33.25;;;;;;;;5091254;28;11597;-84
2023/04/16 06:28:33;;;;;;;;;27.00;26.25;;;;;;;;5076337;28;11569;-91
2023/04/16 06:31:02;;;;;;;;;28.00;24.75;;;;;;;;5088493;28;11628;-73
2023/04/16 06:33:29;;;;;;;;;25.00;20.75;;;;;;;;5076930;28;12322;-71
2023/04/16 06:35:56;;;;;;;;;32.25;26.50;;;;;;;;5087047;28;11565;-74
2023/04/16 06:38:23;;;;;;;;;27.50;24.25;;;;;;;;5083207;28;11561;-74
2023/04/16 06:40:50;;;;;;;;;32.00;27.50;;;;;;;;5089589;28;11562;-80
2023/04/16 06:43:18;;;;;;;;;19.75;18.50;;;;;;;;5087570;28;11543;-79
2023/04/16 06:45:45;;;;;;;;;22.25;21.75;;;;;;;;5078581;28;11637;-72
2023/04/16 06:48:14;;;;;;;;;27.25;25.75;;;;;;;;5076577;28;11626;-77
2023/04/16 06:50:41;;;;;;;;;23.00;19.50;;;;;;;;5069502;28;11506;-77
2023/04/16 06:53:09;;;;;;;;;21.25;20.25;;;;;;;;5069034;28;11535;-72
2023/04/16 06:55:36;;;;;;;;;22.25;20.75;;;;;;;;5079325;28;11582;-77
2023/04/16 06:58:03;;;;;;;;;20.00;19.25;;;;;;;;5077049;28;11538;-76
2023/04/16 07:00:30;;;;;;;;;16.75;16.75;;;;;;;;5068563;28;11444;-73
2023/04/16 07:02:59;;;;;;;;;25.25;20.75;;;;;;;;5082579;28;11630;-72
2023/04/16 07:05:28;;;;;;;;;21.50;18.00;;;;;;;;5077559;28;11509;-72
2023/04/16 07:07:56;;;;;;;;;16.75;16.75;;;;;;;;5075954;28;11495;-74
2023/04/16 07:10:25;;;;;;;;;16.25;15.50;;;;;;;;5077263;28;11538;-72
2023/04/16 07:12:52;;;;;;;;;20.00;17.50;;;;;;;;5078178;28;12323;-73
2023/04/16 07:15:19;;;;;;;;;21.25;17.75;;;;;;;;5068433;28;11481;-73
2023/04/16 07:17:47;;;;;;;;;16.75;16.75;;;;;;;;5076045;28;11634;-73
2023/04/16 07:20:14;;;;;;;;;25.75;22.25;;;;;;;;5076334;28;11448;-76
2023/04/16 07:22:42;;;;;;;;;11.75;11.00;;;;;;;;5076225;28;11674;-73
2023/04/16 07:25:10;;;;;;;;;19.75;16.25;;;;;;;;5075841;28;11085;-74
2023/04/16 07:27:37;;;;;;;;;15.00;14.25;;;;;;;;5076073;28;11174;-73
2023/04/16 07:30:05;;;;;;;;;17.50;15.00;;;;;;;;5070429;28;11356;-74
2023/04/16 07:32:32;;;;;;;;;16.25;16.00;;;;;;;;5080147;28;11220;-73
2023/04/16 07:35:00;;;;;;;;;18.50;15.00;;;;;;;;5078681;28;11917;-78
2023/04/16 07:37:27;;;;;;;;;19.00;15.50;;;;;;;;5072300;28;11229;-73
2023/04/16 07:39:56;;;;;;;;;12.50;11.75;;;;;;;;5079594;28;11063;-73
2023/04/16 07:42:23;;;;;;;;;15.50;14.25;;;;;;;;5071912;28;10924;-75
2023/04/16 07:44:51;;;;;;;;;14.50;14.50;;;;;;;;5075935;28;11032;-74
2023/04/16 07:47:19;;;;;;;;;10.75;10.75;;;;;;;;5076411;28;11772;-79
2023/04/16 07:49:46;;;;;;;;;15.25;15.25;;;;;;;;5068424;28;11145;-75
2023/04/16 07:52:13;;;;;;;;;13.00;13.00;;;;;;;;5079251;28;10954;-76
2023/04/16 07:54:40;;;;;;;;;16.25;13.25;;;;;;;;5086451;28;10806;-73
2023/04/16 07:57:10;;;;;;;;;11.50;11.50;;;;;;;;5076712;28;10846;-71
2023/04/16 07:59:37;;;;;;;;;14.00;14.00;;;;;;;;5080715;28;10818;-75
2023/04/16 08:02:05;;;;;;;;;17.25;15.00;;;;;;;;5067571;28;10865;-76
2023/04/16 08:04:32;;;;;;;;;13.00;12.75;;;;;;;;5080335;28;10832;-76
2023/04/16 08:06:59;;;;;;;;;16.75;15.00;;;;;;;;5080588;28;10594;-73
2023/04/16 08:09:28;;;;;;;;;16.25;15.75;;;;;;;;5085565;28;10610;-72
2023/04/16 08:11:55;;;;;;;;;16.50;12.25;;;;;;;;5076309;28;10715;-74
2023/04/16 08:14:24;;;;;;;;;13.75;13.75;;;;;;;;5087073;28;10774;-75
2023/04/16 08:16:51;;;;;;;;;18.50;15.25;;;;;;;;5085655;28;10511;-73
2023/04/16 08:19:19;;;;;;;;;15.50;13.00;;;;;;;;5067825;28;10678;-76
2023/04/16 08:21:46;;;;;;;;;20.75;17.75;;;;;;;;5074485;28;10767;-78
2023/04/16 08:24:13;;;;;;;;;12.25;11.25;;;;;;;;5073018;28;10652;-77
2023/04/16 08:26:41;;;;;;;;;18.50;15.50;;;;;;;;5068209;28;10542;-78
2023/04/16 08:29:08;;;;;;;;;17.50;12.50;;;;;;;;5073863;28;10765;-79
2023/04/16 08:31:36;;;;;;;;;18.25;16.00;;;;;;;;5073676;28;10363;-77
2023/04/16 08:34:04;;;;;;;;;18.00;14.25;;;;;;;;5068402;28;10398;-77
2023/04/16 08:36:31;;;;;;;;;7.00;7.00;;;;;;;;5074382;28;10239;-78
2023/04/16 08:38:58;;;;;;;;;11.25;11.25;;;;;;;;5076140;28;10274;-77
2023/04/16 08:41:28;;;;;;;;;13.00;8.00;;;;;;;;5077943;28;10169;-78
2023/04/16 08:43:56;;;;;;;;;14.50;12.00;;;;;;;;5071769;28;10009;-75
2023/04/16 08:46:26;;;;;;;;;14.75;13.00;;;;;;;;5078349;28;9933;-72
2023/04/16 08:48:55;;;;;;;;;14.50;12.75;;;;;;;;5070633;28;9944;-74
2023/04/16 08:51:23;;;;;;;;;12.75;12.75;;;;;;;;5080033;28;10088;-77
2023/04/16 08:53:53;;;;;;;;;16.75;15.25;;;;;;;;5081473;28;9774;-72
2023/04/16 08:56:22;;;;;;;;;16.50;14.50;;;;;;;;5075789;28;9911;-73
2023/04/16 08:58:51;;;;;;;;;14.50;14.50;;;;;;;;5076201;28;9770;-86
2023/04/16 09:01:19;;;;;;;;;13.00;11.00;;;;;;;;5071989;28;9698;-73
2023/04/16 09:03:48;;;;;;;;;13.25;11.75;;;;;;;;5080085;28;9467;-76
2023/04/16 09:06:17;;;;;;;;;11.25;10.25;;;;;;;;5076843;28;9596;-75
2023/04/16 09:08:45;;;;;;;;;12.00;12.00;;;;;;;;5077952;28;9416;-76
2023/04/16 09:11:13;;;;;;;;;16.00;13.33;;;;;;;;5078483;28;9311;-76
2023/04/16 09:13:41;;;;;;;;;14.33;14.33;;;;;;;;5075919;28;9339;-77
2023/04/16 09:16:09;;;;;;;;;14.67;13.33;;;;;;;;5067611;28;9395;-77
2023/04/16 09:18:36;;;;;;;;;14.00;12.00;;;;;;;;5075929;28;9276;-77
2023/04/16 09:21:03;;;;;;;;;12.33;11.00;;;;;;;;5067221;28;9170;-80
2023/04/16 09:23:32;;;;;;;;;7.00;7.00;;;;;;;;5076059;28;9258;-79
2023/04/16 09:26:00;;;;;;;;;10.67;10.67;;;;;;;;5082584;28;9336;-75
2023/04/16 09:28:39;;;;;;;;;8.33;8.33;;;;;;;;5075053;28;9087;-74
2023/04/16 09:31:11;;;;;;;;;6.00;6.00;;;;;;;;5074860;28;9214;-76
2023/04/16 09:33:38;;;;;;;;;12.00;9.00;;;;;;;;5070733;28;9082;-72
2023/04/16 09:36:06;;;;;;;;;11.50;11.50;;;;;;;;5079597;28;9047;-75
2023/04/16 09:38:51;;;;;;;;;11.75;10.50;;;;;;;;5075301;28;8862;-76
2023/04/16 09:41:20;;;;;;;;;5.67;5.67;;;;;;;;5075506;28;8873;-72
2023/04/16 09:43:55;;;;;;;;;11.00;11.00;;;;;;;;5082576;28;9706;-72
2023/04/16 09:46:23;;;;;;;;;8.75;8.75;;;;;;;;5071638;28;8843;-78
2023/04/16 09:48:50;;;;;;;;;10.67;10.67;;;;;;;;5076944;28;9683;-72
2023/04/16 09:51:18;;;;;;;;;11.00;11.00;;;;;;;;5083474;28;9004;-75
2023/04/16 09:53:45;;;;;;;;;18.25;14.50;;;;;;;;5071102;28;9097;-75
2023/04/16 09:56:14;;;;;;;;;8.00;6.75;;;;;;;;5082519;28;8878;-73
2023/04/16 09:58:41;;;;;;;;;6.25;6.25;;;;;;;;5081912;28;8862;-79
2023/04/16 10:01:10;;;;;;;;;8.25;7.75;;;;;;;;5088389;28;8792;-72
2023/04/16 10:03:38;;;;;;;;;5.75;5.75;;;;;;;;5090016;28;8863;-78
2023/04/16 10:06:09;;;;;;;;;8.25;8.00;;;;;;;;5075873;28;9657;-79
2023/04/16 10:08:36;;;;;;;;;5.25;5.25;;;;;;;;5077961;28;8858;-77
2023/04/16 10:11:03;;;;;;;;;6.00;6.00;;;;;;;;5087944;28;8839;-77
2023/04/16 10:13:32;;;;;;;;;8.00;6.00;;;;;;;;5071505;28;8870;-73
2023/04/16 10:16:00;;;;;;;;;6.50;3.75;;;;;;;;5083682;28;8870;-82
2023/04/16 10:18:28;;;;;;;;;4.75;4.75;;;;;;;;5071251;28;8864;-79
2023/04/16 10:20:55;;;;;;;;;6.00;6.00;;;;;;;;5071259;28;8834;-82
2023/04/16 10:23:22;;;;;;;;;9.75;8.75;;;;;;;;5072363;28;8843;-79
2023/04/16 10:25:50;;;;;;;;;14.75;14.75;;;;;;;;5072383;28;9005;-83
2023/04/16 10:28:17;;;;;;;;;17.00;16.50;;;;;;;;5074461;28;8888;-84
2023/04/16 10:30:52;;;;;;;;;26.67;24.33;;;;;;;;5065765;28;8768;-85
2023/04/16 10:33:21;;;;;;;;;72.50;58.50;;;;;;;;5070476;28;9392;-74
2023/04/16 10:35:49;;;;;;;;;16.25;14.25;;;;;;;;5070557;28;11533;-76
2023/04/16 10:38:24;;;;;;;;;7.75;7.75;;;;;;;;5075252;28;10900;-76
2023/04/16 10:40:56;;;;;;;;;8.75;8.75;;;;;;;;5081210;28;9645;-77
2023/04/16 10:43:26;;;;;;;;;4.00;4.00;;;;;;;;5072201;28;8874;-73
2023/04/16 10:45:55;;;;;;;;;5.75;5.75;;;;;;;;5072771;28;8961;-78
2023/04/16 10:48:24;;;;;;;;;5.00;5.00;;;;;;;;5071714;28;8859;-76
2023/04/16 10:50:56;;;;;;;;;6.00;6.00;;;;;;;;5082121;28;8864;-76
2023/04/16 10:53:24;;;;;;;;;8.50;8.00;;;;;;;;5064605;28;8909;-72
2023/04/16 10:56:10;;;;;;;;;8.00;8.00;;;;;;;;5086595;28;8852;-76
2023/04/16 10:58:37;;;;;;;;;8.00;7.00;;;;;;;;5069372;28;8862;-79
2023/04/16 11:01:12;;;;;;;;;5.25;5.25;;;;;;;;5072190;28;8804;-82
2023/04/16 11:03:42;;;;;;;;;6.75;6.50;;;;;;;;5088849;28;8860;-76
2023/04/16 11:06:15;;;;;;;;;4.50;4.50;;;;;;;;5087029;28;8870;-74
2023/04/16 11:08:44;;;;;;;;;5.00;5.00;;;;;;;;5088148;28;8855;-78
2023/04/16 11:11:12;;;;;;;;;5.25;5.00;;;;;;;;5070669;28;8992;-78
2023/04/16 11:13:43;;;;;;;;;6.00;6.00;;;;;;;;5081880;28;8856;-72
2023/04/16 11:16:12;;;;;;;;;5.25;5.25;;;;;;;;5058118;28;8886;-76
2023/04/16 11:18:40;;;;;;;;;7.25;5.75;;;;;;;;5081784;28;8869;-75
2023/04/16 11:21:09;;;;;;;;;8.00;6.75;;;;;;;;5079717;28;8850;-75
2023/04/16 11:23:47;;;;;;;;;5.50;5.50;;;;;;;;5082487;28;8854;-74
2023/04/16 11:26:23;;;;;;;;;6.75;6.75;;;;;;;;5077054;28;8875;-76
2023/04/16 11:28:50;;;;;;;;;5.75;5.75;;;;;;;;5081168;28;8846;-76
2023/04/16 11:31:19;;;;;;;;;8.00;6.75;;;;;;;;5068389;28;8791;-75
2023/04/16 11:33:46;;;;;;;;;5.25;4.50;;;;;;;;5074068;28;8864;-77
2023/04/16 11:36:13;;;;;;;;;8.25;6.00;;;;;;;;5086767;28;8872;-77
2023/04/16 11:38:41;;;;;;;;;5.75;4.25;;;;;;;;5068736;28;9629;-77
2023/04/16 11:41:10;;;;;;;;;7.75;6.25;;;;;;;;5081265;28;9006;-77
2023/04/16 11:43:37;;;;;;;;;5.50;5.50;;;;;;;;5057653;28;8877;-74
2023/04/16 11:46:06;;;;;;;;;5.00;5.00;;;;;;;;5080467;28;8860;-78
2023/04/16 11:48:53;;;;;;;;;6.75;5.50;;;;;;;;5057543;28;8862;-80
2023/04/16 11:51:22;;;;;;;;;7.00;7.00;;;;;;;;5072076;28;8844;-77
2023/04/16 11:53:51;;;;;;;;;5.50;5.50;;;;;;;;5088286;28;8852;-81
2023/04/16 11:56:28;;;;;;;;;4.00;4.00;;;;;;;;5082823;28;8885;-76
2023/04/16 11:59:09;;;;;;;;;4.25;4.25;;;;;;;;5068964;28;8859;-77
2023/04/16 12:01:37;;;;;;;;;5.75;5.75;;;;;;;;5075606;28;9621;-76
2023/04/16 12:04:05;;;;;;;;;7.00;5.75;;;;;;;;5085069;28;8848;-79
2023/04/16 12:06:33;;;;;;;;;5.00;5.00;;;;;;;;5059363;28;8953;-77
2023/04/16 12:09:01;;;;;;;;;10.25;7.50;;;;;;;;5069027;28;8931;-77
2023/04/16 12:11:46;;;;;;;;;4.00;4.00;;;;;;;;5070968;28;8850;-79
2023/04/16 12:14:13;;;;;;;;;4.00;4.00;;;;;;;;5071197;28;8867;-87
2023/04/16 12:16:40;;;;;;;;;6.50;6.50;;;;;;;;5070759;28;8869;-80
2023/04/16 12:19:12;;;;;;;;;5.75;5.75;;;;;;;;5069825;28;8858;-83
2023/04/16 12:21:40;;;;;;;;;4.00;4.00;;;;;;;;5068420;28;9266;-77
2023/04/16 12:24:09;;;;;;;;;5.25;5.25;;;;;;;;5072892;28;8936;-80
2023/04/16 12:26:38;;;;;;;;;6.50;6.50;;;;;;;;5068585;28;8847;-76
2023/04/16 12:29:19;;;;;;;;;5.00;5.00;;;;;;;;5067647;28;8932;-78
2023/04/16 12:31:47;;;;;;;;;5.00;5.00;;;;;;;;5063281;28;8868;-73
2023/04/16 12:34:16;;;;;;;;;5.75;4.50;;;;;;;;5082963;28;9629;-79
2023/04/16 12:36:45;;;;;;;;;7.00;5.25;;;;;;;;5063783;28;8985;-76
2023/04/16 12:39:13;;;;;;;;;5.00;5.00;;;;;;;;5076250;28;9677;-75
2023/04/16 12:41:42;;;;;;;;;6.00;6.00;;;;;;;;5080673;28;8843;-76
2023/04/16 12:44:10;;;;;;;;;5.50;4.00;;;;;;;;5080878;28;8878;-74
2023/04/16 12:46:39;;;;;;;;;5.75;5.75;;;;;;;;5067817;28;8862;-79
2023/04/16 12:49:06;;;;;;;;;7.00;5.00;;;;;;;;5067623;28;8877;-75
2023/04/16 12:51:35;;;;;;;;;9.00;6.00;;;;;;;;5079952;28;8888;-79
2023/04/16 12:54:11;;;;;;;;;5.00;5.00;;;;;;;;5080384;28;8863;-76
2023/04/16 12:56:38;;;;;;;;;6.25;6.00;;;;;;;;5055929;28;8863;-77
2023/04/16 12:59:05;;;;;;;;;5.00;5.00;;;;;;;;5079008;28;8860;-72
2023/04/16 13:01:34;;;;;;;;;4.50;4.50;;;;;;;;5067237;28;8811;-81
2023/04/16 13:04:02;;;;;;;;;6.25;6.25;;;;;;;;5068016;28;8843;-75
2023/04/16 13:06:32;;;;;;;;;6.00;5.00;;;;;;;;5072092;28;9526;-79
2023/04/16 13:09:01;;;;;;;;;4.00;4.00;;;;;;;;5075433;28;8861;-72
2023/04/16 13:11:28;;;;;;;;;5.80;4.80;;;;;;;;5067328;28;8973;-71
2023/04/16 13:13:56;;;;;;;;;4.75;4.75;;;;;;;;5067275;28;8929;-74
2023/04/16 13:16:23;;;;;;;;;9.00;7.00;;;;;;;;5056380;28;8973;-77
2023/04/16 13:18:50;;;;;;;;;4.25;4.25;;;;;;;;5071174;28;8944;-72
2023/04/16 13:21:17;;;;;;;;;4.00;4.00;;;;;;;;5071549;28;8834;-76
2023/04/16 13:23:44;;;;;;;;;6.50;4.75;;;;;;;;5073023;28;8859;-75
2023/04/16 13:26:14;;;;;;;;;5.00;5.00;;;;;;;;5073312;28;8964;-82
2023/04/16 13:28:41;;;;;;;;;6.25;5.75;;;;;;;;5073377;28;8870;-72
2023/04/16 13:31:09;;;;;;;;;5.50;4.00;;;;;;;;5071244;28;8827;-82
2023/04/16 13:33:36;;;;;;;;;4.25;4.25;;;;;;;;5070790;28;8864;-73
2023/04/16 13:36:03;;;;;;;;;6.75;5.50;;;;;;;;5073029;28;8854;-72
2023/04/16 13:38:30;;;;;;;;;6.00;6.00;;;;;;;;5081126;28;8860;-74
2023/04/16 13:40:58;;;;;;;;;4.40;4.40;;;;;;;;5073247;28;8855;-73
2023/04/16 13:43:26;;;;;;;;;4.80;4.80;;;;;;;;5083319;28;8931;-76
2023/04/16 13:45:53;;;;;;;;;6.00;6.00;;;;;;;;5078644;28;8847;-83
2023/04/16 13:48:21;;;;;;;;;5.00;5.00;;;;;;;;5071368;28;8846;-78
2023/04/16 13:50:48;;;;;;;;;5.80;5.80;;;;;;;;5084164;28;8836;-78
2023/04/16 13:53:15;;;;;;;;;6.00;6.00;;;;;;;;5071003;28;9018;-76
2023/04/16 13:55:44;;;;;;;;;4.60;4.60;;;;;;;;5079178;28;8877;-82
2023/04/16 13:58:11;;;;;;;;;4.20;4.20;;;;;;;;5078706;28;8874;-78
2023/04/16 14:00:40;;;;;;;;;6.00;6.00;;;;;;;;5071084;28;8775;-76
2023/04/16 14:03:07;;;;;;;;;4.20;4.20;;;;;;;;5068462;28;9672;-79
2023/04/16 14:05:34;;;;;;;;;3.80;3.20;;;;;;;;5085866;28;8875;-81
2023/04/16 14:08:01;;;;;;;;;3.60;3.60;;;;;;;;5089473;28;8898;-82
2023/04/16 14:10:29;;;;;;;;;4.60;4.60;;;;;;;;5077814;28;8854;-79
2023/04/16 14:12:56;;;;;;;;;3.80;3.80;;;;;;;;5071997;28;8859;-84
2023/04/16 14:15:26;;;;;;;;;5.60;5.60;;;;;;;;5071310;28;8851;-73
2023/04/16 14:17:54;;;;;;;;;4.60;4.60;;;;;;;;5078160;28;9742;-78
2023/04/16 14:20:22;;;;;;;;;5.40;5.40;;;;;;;;5072596;28;8839;-78
2023/04/16 14:22:49;;;;;;;;;3.00;3.00;;;;;;;;5081685;28;8854;-73
2023/04/16 14:25:16;;;;;;;;;3.80;3.80;;;;;;;;5069672;28;8876;-81
2023/04/16 14:27:43;;;;;;;;;4.20;4.20;;;;;;;;5069866;28;8898;-73
2023/04/16 14:30:11;;;;;;;;;3.00;3.00;;;;;;;;5069449;28;8866;-78
2023/04/16 14:32:38;;;;;;;;;5.00;5.00;;;;;;;;5069211;28;9676;-77
2023/04/16 14:35:08;;;;;;;;;4.20;4.20;;;;;;;;5069879;28;8969;-72
2023/04/16 14:37:37;;;;;;;;;3.00;3.00;;;;;;;;5070447;28;8847;-75